Weather at Camp Bondsteel Army Heliport

Public forecast

Using degrees Celsius for public forecast. Weather courtesy of forecast.io.

Closest aviation weather report (METAR) to Camp Bondsteel Army Heliport

Closest report is Priština Adem Jashari International Airport, 15.4 nm (28.5 km) NW. Retrieved 2022/07/02 17:30 UTC (19 minutes ago):

BKPR 021730Z 03015KT 9999 TS SCT040CB 29/15 Q1020 NOSIG

Closest aviation forecast (TAF) to Camp Bondsteel Army Heliport

Closest forecast is Priština Adem Jashari International Airport, 15.4 nm (28.5 km) NW. Retrieved 2022/07/02 12:30 UTC (5 hours ago):

TAF BKPR 021130Z 0212/0312 02010KT 9999 FEW050 TEMPO 0212/0218 VRB15G25KT 5000 -TSRA SCT030CB